sensor_id;sensor_type;location;lat;lon;timestamp;pressure;altitude;pressure_sealevel;temperature;humidity
26719;BME280;14326;50.794;6.060;2023-07-13T00:01:10;99561.31;;;17.64;69.42
26719;BME280;14326;50.794;6.060;2023-07-13T00:04:05;99568.56;;;17.58;68.45
26719;BME280;14326;50.794;6.060;2023-07-13T00:07:04;99574.84;;;17.59;68.13
26719;BME280;14326;50.794;6.060;2023-07-13T00:09:59;99571.25;;;17.58;69.26
26719;BME280;14326;50.794;6.060;2023-07-13T00:12:40;99578.44;;;17.61;69.29
26719;BME280;14326;50.794;6.060;2023-07-13T00:15:37;99586.72;;;17.49;68.79
26719;BME280;14326;50.794;6.060;2023-07-13T00:18:25;99579.69;;;17.40;70.97
26719;BME280;14326;50.794;6.060;2023-07-13T00:21:02;99581.50;;;17.38;70.75
26719;BME280;14326;50.794;6.060;2023-07-13T00:24:46;99586.16;;;17.32;71.03
26719;BME280;14326;50.794;6.060;2023-07-13T00:27:21;99583.63;;;17.21;71.77
26719;BME280;14326;50.794;6.060;2023-07-13T00:30:21;99586.31;;;17.21;72.15
26719;BME280;14326;50.794;6.060;2023-07-13T00:32:55;99591.75;;;17.19;71.61
26719;BME280;14326;50.794;6.060;2023-07-13T00:35:55;99585.59;;;17.11;73.21
26719;BME280;14326;50.794;6.060;2023-07-13T00:38:38;99584.84;;;17.03;73.25
26719;BME280;14326;50.794;6.060;2023-07-13T00:41:32;99588.50;;;16.99;73.84
26719;BME280;14326;50.794;6.060;2023-07-13T00:44:05;99585.91;;;16.95;74.69
26719;BME280;14326;50.794;6.060;2023-07-13T00:46:47;99583.34;;;16.87;74.86
26719;BME280;14326;50.794;6.060;2023-07-13T00:49:38;99590.63;;;16.79;75.73
26719;BME280;14326;50.794;6.060;2023-07-13T00:52:28;99591.66;;;16.72;75.24
26719;BME280;14326;50.794;6.060;2023-07-13T00:55:14;99583.59;;;16.72;75.78
26719;BME280;14326;50.794;6.060;2023-07-13T01:04:18;99582.78;;;16.67;74.83
26719;BME280;14326;50.794;6.060;2023-07-13T01:06:59;99584.53;;;16.69;74.27
26719;BME280;14326;50.794;6.060;2023-07-13T01:10:10;99582.66;;;16.74;74.77
26719;BME280;14326;50.794;6.060;2023-07-13T01:12:54;99582.63;;;16.77;74.07
26719;BME280;14326;50.794;6.060;2023-07-13T01:15:44;99582.63;;;16.76;73.65
26719;BME280;14326;50.794;6.060;2023-07-13T01:19:03;99571.81;;;16.81;73.75
26719;BME280;14326;50.794;6.060;2023-07-13T01:21:58;99573.56;;;16.83;74.14
26719;BME280;14326;50.794;6.060;2023-07-13T01:24:43;99581.53;;;16.89;73.50
26719;BME280;14326;50.794;6.060;2023-07-13T01:27:39;99578.06;;;16.83;72.46
26719;BME280;14326;50.794;6.060;2023-07-13T01:30:35;99570.88;;;16.83;72.10
26719;BME280;14326;50.794;6.060;2023-07-13T01:33:06;99577.06;;;16.88;71.48
26719;BME280;14326;50.794;6.060;2023-07-13T01:35:50;99564.63;;;16.81;71.33
26719;BME280;14326;50.794;6.060;2023-07-13T01:38:35;99566.41;;;16.82;71.60
26719;BME280;14326;50.794;6.060;2023-07-13T01:41:12;99570.97;;;16.77;71.37
26719;BME280;14326;50.794;6.060;2023-07-13T01:44:04;99571.78;;;16.82;71.14
26719;BME280;14326;50.794;6.060;2023-07-13T01:49:38;99569.13;;;16.79;71.08
26719;BME280;14326;50.794;6.060;2023-07-13T01:52:31;99570.19;;;16.72;70.95
26719;BME280;14326;50.794;6.060;2023-07-13T01:58:21;99585.53;;;16.62;71.72
26719;BME280;14326;50.794;6.060;2023-07-13T02:01:25;99585.41;;;16.71;71.92
26719;BME280;14326;50.794;6.060;2023-07-13T02:04:13;99584.69;;;16.60;71.72
26719;BME280;14326;50.794;6.060;2023-07-13T02:06:45;99585.47;;;16.67;71.69
26719;BME280;14326;50.794;6.060;2023-07-13T02:09:32;99591.66;;;16.72;72.42
26719;BME280;14326;50.794;6.060;2023-07-13T02:12:12;99595.25;;;16.72;72.62
26719;BME280;14326;50.794;6.060;2023-07-13T02:14:49;99597.13;;;16.66;72.87
26719;BME280;14326;50.794;6.060;2023-07-13T02:17:36;99597.16;;;16.64;74.05
26719;BME280;14326;50.794;6.060;2023-07-13T02:20:26;99587.34;;;16.59;74.36
26719;BME280;14326;50.794;6.060;2023-07-13T02:23:22;99586.56;;;16.51;74.43
26719;BME280;14326;50.794;6.060;2023-07-13T02:26:03;99585.66;;;16.52;75.16
26719;BME280;14326;50.794;6.060;2023-07-13T02:29:04;99591.09;;;16.49;75.78
26719;BME280;14326;50.794;6.060;2023-07-13T02:31:59;99584.88;;;16.45;76.15
26719;BME280;14326;50.794;6.060;2023-07-13T02:34:40;99585.81;;;16.43;76.52
26719;BME280;14326;50.794;6.060;2023-07-13T02:38:23;99590.34;;;16.37;76.60
26719;BME280;14326;50.794;6.060;2023-07-13T02:44:46;99591.38;;;16.30;77.15
26719;BME280;14326;50.794;6.060;2023-07-13T02:46:17;99603.97;;;16.25;77.49
26719;BME280;14326;50.794;6.060;2023-07-13T02:49:26;99592.44;;;16.19;78.17
26719;BME280;14326;50.794;6.060;2023-07-13T02:51:59;99594.09;;;16.26;78.30
26719;BME280;14326;50.794;6.060;2023-07-13T02:54:55;99593.25;;;16.25;78.01
26719;BME280;14326;50.794;6.060;2023-07-13T02:57:45;99592.38;;;16.22;78.50
26719;BME280;14326;50.794;6.060;2023-07-13T03:01:08;99588.84;;;16.18;79.05
26719;BME280;14326;50.794;6.060;2023-07-13T03:03:44;99598.72;;;16.15;79.72
26719;BME280;14326;50.794;6.060;2023-07-13T03:06:16;99596.91;;;16.18;79.75
26719;BME280;14326;50.794;6.060;2023-07-13T03:09:11;99604.16;;;16.13;80.13
26719;BME280;14326;50.794;6.060;2023-07-13T03:11:45;99606.84;;;16.12;80.54
26719;BME280;14326;50.794;6.060;2023-07-13T03:14:14;99601.41;;;16.15;79.96
26719;BME280;14326;50.794;6.060;2023-07-13T03:16:41;99604.16;;;16.13;80.22
26719;BME280;14326;50.794;6.060;2023-07-13T03:19:09;99605.06;;;16.11;80.21
26719;BME280;14326;50.794;6.060;2023-07-13T03:21:44;99600.59;;;16.11;80.21
26719;BME280;14326;50.794;6.060;2023-07-13T03:24:44;99604.31;;;16.01;80.99
26719;BME280;14326;50.794;6.060;2023-07-13T03:27:37;99615.03;;;16.00;80.93
26719;BME280;14326;50.794;6.060;2023-07-13T03:30:30;99607.00;;;16.00;81.46
26719;BME280;14326;50.794;6.060;2023-07-13T03:33:17;99611.47;;;16.01;81.65
26719;BME280;14326;50.794;6.060;2023-07-13T03:38:52;99616.00;;;15.95;82.16
26719;BME280;14326;50.794;6.060;2023-07-13T03:41:27;99608.84;;;15.96;82.17
26719;BME280;14326;50.794;6.060;2023-07-13T03:44:06;99617.75;;;15.96;82.51
26719;BME280;14326;50.794;6.060;2023-07-13T03:46:52;99625.84;;;15.95;82.94
26719;BME280;14326;50.794;6.060;2023-07-13T03:49:33;99628.47;;;16.00;83.39
26719;BME280;14326;50.794;6.060;2023-07-13T03:52:28;99624.94;;;15.96;83.90
26719;BME280;14326;50.794;6.060;2023-07-13T03:55:16;99627.56;;;15.99;83.45
26719;BME280;14326;50.794;6.060;2023-07-13T03:58:31;99628.47;;;15.98;83.54
26719;BME280;14326;50.794;6.060;2023-07-13T04:04:10;99632.94;;;15.99;84.23
26719;BME280;14326;50.794;6.060;2023-07-13T04:07:00;99633.75;;;16.06;84.53
26719;BME280;14326;50.794;6.060;2023-07-13T04:09:45;99634.66;;;16.03;84.65
26719;BME280;14326;50.794;6.060;2023-07-13T04:12:32;99631.16;;;15.98;85.05
26719;BME280;14326;50.794;6.060;2023-07-13T04:15:13;99638.25;;;16.04;85.00
26719;BME280;14326;50.794;6.060;2023-07-13T04:17:42;99640.00;;;16.06;85.13
26719;BME280;14326;50.794;6.060;2023-07-13T04:20:16;99646.22;;;16.10;84.73
26719;BME280;14326;50.794;6.060;2023-07-13T04:22:47;99643.53;;;16.08;85.07
26719;BME280;14326;50.794;6.060;2023-07-13T04:25:27;99641.75;;;16.10;84.35
26719;BME280;14326;50.794;6.060;2023-07-13T04:28:27;99647.09;;;16.13;84.51
26719;BME280;14326;50.794;6.060;2023-07-13T04:31:01;99656.06;;;16.09;85.19
26719;BME280;14326;50.794;6.060;2023-07-13T04:33:28;99654.31;;;16.07;85.04
26719;BME280;14326;50.794;6.060;2023-07-13T04:36:09;99659.63;;;16.10;85.51
26719;BME280;14326;50.794;6.060;2023-07-13T04:38:44;99655.06;;;16.18;85.11
26719;BME280;14326;50.794;6.060;2023-07-13T04:41:16;99653.25;;;16.20;84.69
26719;BME280;14326;50.794;6.060;2023-07-13T04:44:02;99654.91;;;16.31;84.73
26719;BME280;14326;50.794;6.060;2023-07-13T04:46:29;99659.28;;;16.37;84.75
26719;BME280;14326;50.794;6.060;2023-07-13T04:49:08;99669.94;;;16.43;84.90
26719;BME280;14326;50.794;6.060;2023-07-13T04:51:57;99663.53;;;16.52;84.33
26719;BME280;14326;50.794;6.060;2023-07-13T04:54:35;99673.38;;;16.53;84.34
26719;BME280;14326;50.794;6.060;2023-07-13T05:00:38;57030.06;;;-142.25;100.00
26719;BME280;14326;50.794;6.060;2023-07-13T05:03:36;57030.06;;;-142.25;100.00
26719;BME280;14326;50.794;6.060;2023-07-13T05:06:13;57030.06;;;-142.25;100.00
26719;BME280;14326;50.794;6.060;2023-07-13T05:08:53;57030.06;;;-142.25;100.00
26719;BME280;14326;50.794;6.060;2023-07-13T05:11:26;57030.06;;;-142.25;100.00
26719;BME280;14326;50.794;6.060;2023-07-13T05:14:03;57030.06;;;-142.25;100.00
26719;BME280;14326;50.794;6.060;2023-07-13T05:16:31;57030.06;;;-142.25;100.00
26719;BME280;14326;50.794;6.060;2023-07-13T05:20:44;57030.06;;;-142.25;100.00
26719;BME280;14326;50.794;6.060;2023-07-13T05:22:10;57030.06;;;-142.25;100.00
26719;BME280;14326;50.794;6.060;2023-07-13T05:24:40;57030.06;;;-142.25;100.00
26719;BME280;14326;50.794;6.060;2023-07-13T05:27:20;57030.06;;;-142.25;100.00
26719;BME280;14326;50.794;6.060;2023-07-13T05:32:56;57030.06;;;-142.25;100.00
26719;BME280;14326;50.794;6.060;2023-07-13T05:35:22;57030.06;;;-142.25;100.00
26719;BME280;14326;50.794;6.060;2023-07-13T05:37:49;57030.06;;;-142.25;100.00
26719;BME280;14326;50.794;6.060;2023-07-13T05:40:16;57030.06;;;-142.25;100.00
26719;BME280;14326;50.794;6.060;2023-07-13T05:43:08;57030.06;;;-142.25;100.00
26719;BME280;14326;50.794;6.060;2023-07-13T05:45:36;57030.06;;;-142.25;100.00
26719;BME280;14326;50.794;6.060;2023-07-13T05:48:04;57030.06;;;-142.25;100.00
26719;BME280;14326;50.794;6.060;2023-07-13T05:50:35;57030.06;;;-142.25;100.00
26719;BME280;14326;50.794;6.060;2023-07-13T05:53:21;57030.06;;;-142.25;100.00
26719;BME280;14326;50.794;6.060;2023-07-13T05:58:59;57030.06;;;-142.25;100.00
26719;BME280;14326;50.794;6.060;2023-07-13T06:01:44;57030.06;;;-142.25;100.00
26719;BME280;14326;50.794;6.060;2023-07-13T06:04:26;57030.06;;;-142.25;100.00
26719;BME280;14326;50.794;6.060;2023-07-13T06:07:07;57030.06;;;-142.25;100.00
26719;BME280;14326;50.794;6.060;2023-07-13T06:09:47;57030.06;;;-142.25;100.00
26719;BME280;14326;50.794;6.060;2023-07-13T06:12:35;57030.06;;;-142.25;100.00
26719;BME280;14326;50.794;6.060;2023-07-13T06:15:18;57030.06;;;-142.25;100.00
26719;BME280;14326;50.794;6.060;2023-07-13T06:18:22;57030.06;;;-142.25;100.00
26719;BME280;14326;50.794;6.060;2023-07-13T06:21:05;57030.06;;;-142.25;100.00
26719;BME280;14326;50.794;6.060;2023-07-13T06:24:07;57030.06;;;-142.25;100.00
26719;BME280;14326;50.794;6.060;2023-07-13T06:26:57;57030.06;;;-142.25;100.00
26719;BME280;14326;50.794;6.060;2023-07-13T06:29:45;57030.06;;;-142.25;100.00
26719;BME280;14326;50.794;6.060;2023-07-13T06:32:14;57030.06;;;-142.25;100.00
26719;BME280;14326;50.794;6.060;2023-07-13T06:34:44;57030.06;;;-142.25;100.00
26719;BME280;14326;50.794;6.060;2023-07-13T06:37:20;57030.06;;;-142.25;100.00
26719;BME280;14326;50.794;6.060;2023-07-13T06:40:02;57030.06;;;-142.25;100.00
26719;BME280;14326;50.794;6.060;2023-07-13T06:42:46;57030.06;;;-142.25;100.00
26719;BME280;14326;50.794;6.060;2023-07-13T06:45:20;57030.06;;;-142.25;100.00
26719;BME280;14326;50.794;6.060;2023-07-13T06:47:53;57030.06;;;-142.25;100.00
26719;BME280;14326;50.794;6.060;2023-07-13T06:50:51;57030.06;;;-142.25;100.00
26719;BME280;14326;50.794;6.060;2023-07-13T06:53:49;57030.06;;;-142.25;100.00
26719;BME280;14326;50.794;6.060;2023-07-13T06:56:30;57030.06;;;-142.25;100.00
26719;BME280;14326;50.794;6.060;2023-07-13T06:59:10;57030.06;;;-142.25;100.00
26719;BME280;14326;50.794;6.060;2023-07-13T07:01:36;57030.06;;;-142.25;100.00
26719;BME280;14326;50.794;6.060;2023-07-13T07:04:11;99753.91;;;18.67;80.17
26719;BME280;14326;50.794;6.060;2023-07-13T07:07:13;99749.34;;;18.72;79.82
26719;BME280;14326;50.794;6.060;2023-07-13T07:10:14;99753.56;;;18.84;78.34
26719;BME280;14326;50.794;6.060;2023-07-13T07:13:09;99763.50;;;18.82;78.78
26719;BME280;14326;50.794;6.060;2023-07-13T07:15:45;99766.03;;;18.90;78.59
26719;BME280;14326;50.794;6.060;2023-07-13T07:18:23;99758.13;;;18.80;78.66
26719;BME280;14326;50.794;6.060;2023-07-13T07:21:12;99766.97;;;18.87;78.28
26719;BME280;14326;50.794;6.060;2023-07-13T07:23:48;99762.34;;;18.92;79.79
26719;BME280;14326;50.794;6.060;2023-07-13T07:26:36;99767.34;;;19.09;79.13
26719;BME280;14326;50.794;6.060;2023-07-13T07:29:21;99777.56;;;18.96;78.39
26719;BME280;14326;50.794;6.060;2023-07-13T07:32:43;99774.19;;;18.85;78.17
26719;BME280;14326;50.794;6.060;2023-07-13T07:35:08;99773.34;;;18.85;78.19
26719;BME280;14326;50.794;6.060;2023-07-13T07:40:46;99766.03;;;18.90;79.71
26719;BME280;14326;50.794;6.060;2023-07-13T07:43:38;99771.47;;;18.87;77.80
26719;BME280;14326;50.794;6.060;2023-07-13T07:46:08;99778.72;;;18.85;78.31
26719;BME280;14326;50.794;6.060;2023-07-13T07:51:36;99779.56;;;18.85;79.60
26719;BME280;14326;50.794;6.060;2023-07-13T07:54:30;99781.31;;;18.89;78.86
26719;BME280;14326;50.794;6.060;2023-07-13T07:56:57;99782.75;;;19.04;79.08
26719;BME280;14326;50.794;6.060;2023-07-13T07:59:36;99779.78;;;19.16;78.26
26719;BME280;14326;50.794;6.060;2023-07-13T08:02:15;99785.41;;;19.07;78.16
26719;BME280;14326;50.794;6.060;2023-07-13T08:05:07;99786.03;;;19.18;77.98
26719;BME280;14326;50.794;6.060;2023-07-13T08:07:43;99776.91;;;19.23;78.06
26719;BME280;14326;50.794;6.060;2023-07-13T08:10:20;99783.19;;;19.26;76.44
26719;BME280;14326;50.794;6.060;2023-07-13T08:13:28;99782.91;;;19.36;77.49
26719;BME280;14326;50.794;6.060;2023-07-13T08:16:10;99769.97;;;19.52;75.77
26719;BME280;14326;50.794;6.060;2023-07-13T08:18:59;99780.50;;;19.62;76.37
26719;BME280;14326;50.794;6.060;2023-07-13T08:22:37;99776.13;;;19.57;75.93
26719;BME280;14326;50.794;6.060;2023-07-13T08:25:20;99773.16;;;19.68;76.15
26719;BME280;14326;50.794;6.060;2023-07-13T08:27:56;99775.66;;;19.77;75.14
26719;BME280;14326;50.794;6.060;2023-07-13T08:30:36;99776.22;;;19.89;75.08
26719;BME280;14326;50.794;6.060;2023-07-13T08:33:23;99772.31;;;20.01;73.29
26719;BME280;14326;50.794;6.060;2023-07-13T08:36:03;99771.06;;;20.14;72.67
26719;BME280;14326;50.794;6.060;2023-07-13T08:41:59;99766.63;;;20.75;70.11
26719;BME280;14326;50.794;6.060;2023-07-13T08:50:18;99760.59;;;21.26;66.25
26719;BME280;14326;50.794;6.060;2023-07-13T08:51:22;99762.59;;;21.47;65.97
26719;BME280;14326;50.794;6.060;2023-07-13T08:53:59;99763.06;;;21.59;66.65
26719;BME280;14326;50.794;6.060;2023-07-13T08:56:44;99754.72;;;21.92;67.40
26719;BME280;14326;50.794;6.060;2023-07-13T08:59:18;99757.13;;;22.02;66.01
26719;BME280;14326;50.794;6.060;2023-07-13T09:02:17;99768.94;;;22.00;63.88
26719;BME280;14326;50.794;6.060;2023-07-13T09:05:02;99745.59;;;22.21;63.67
26719;BME280;14326;50.794;6.060;2023-07-13T09:07:57;99744.75;;;22.20;64.03
26719;BME280;14326;50.794;6.060;2023-07-13T09:11:10;99746.13;;;22.32;63.35
26719;BME280;14326;50.794;6.060;2023-07-13T09:14:05;99741.72;;;22.28;61.78
26719;BME280;14326;50.794;6.060;2023-07-13T09:16:41;99746.53;;;22.44;62.86
26719;BME280;14326;50.794;6.060;2023-07-13T09:19:23;99757.72;;;22.35;62.71
26719;BME280;14326;50.794;6.060;2023-07-13T09:22:24;99753.09;;;22.14;62.94
26719;BME280;14326;50.794;6.060;2023-07-13T09:25:05;99761.81;;;22.22;62.39
26719;BME280;14326;50.794;6.060;2023-07-13T09:31:06;99738.59;;;22.63;60.50
26719;BME280;14326;50.794;6.060;2023-07-13T09:33:52;99746.16;;;22.55;63.29
26719;BME280;14326;50.794;6.060;2023-07-13T09:36:30;99745.81;;;22.39;61.76
26719;BME280;14326;50.794;6.060;2023-07-13T09:39:19;99760.56;;;22.32;61.53
26719;BME280;14326;50.794;6.060;2023-07-13T09:45:22;99745.94;;;22.12;61.88
26719;BME280;14326;50.794;6.060;2023-07-13T09:48:14;99755.03;;;22.09;62.52
26719;BME280;14326;50.794;6.060;2023-07-13T09:50:47;99751.69;;;22.27;60.51
26719;BME280;14326;50.794;6.060;2023-07-13T09:53:41;99748.06;;;22.52;59.45
26719;BME280;14326;50.794;6.060;2023-07-13T09:56:22;99742.97;;;22.67;59.81
26719;BME280;14326;50.794;6.060;2023-07-13T09:59:31;99748.44;;;22.66;59.77
26719;BME280;14326;50.794;6.060;2023-07-13T10:02:07;99748.19;;;22.97;60.68
26719;BME280;14326;50.794;6.060;2023-07-13T10:05:16;99765.88;;;23.07;59.50
26719;BME280;14326;50.794;6.060;2023-07-13T10:07:50;99760.69;;;23.01;57.77
26719;BME280;14326;50.794;6.060;2023-07-13T10:10:44;99758.88;;;22.78;59.04
26719;BME280;14326;50.794;6.060;2023-07-13T10:13:53;99756.44;;;22.69;60.09
26719;BME280;14326;50.794;6.060;2023-07-13T10:20:12;99771.31;;;22.34;59.57
26719;BME280;14326;50.794;6.060;2023-07-13T10:22:45;99783.09;;;22.33;60.20
26719;BME280;14326;50.794;6.060;2023-07-13T10:25:31;99782.25;;;22.32;60.38
26719;BME280;14326;50.794;6.060;2023-07-13T10:28:23;99787.31;;;22.17;60.45
26719;BME280;14326;50.794;6.060;2023-07-13T10:31:25;99782.78;;;22.17;60.28
26719;BME280;14326;50.794;6.060;2023-07-13T10:34:24;99781.72;;;22.21;61.31
26719;BME280;14326;50.794;6.060;2023-07-13T10:37:33;99794.00;;;22.07;60.72
26719;BME280;14326;50.794;6.060;2023-07-13T10:40:37;99788.16;;;22.19;60.34
26719;BME280;14326;50.794;6.060;2023-07-13T10:43:25;99791.03;;;22.14;61.70
26719;BME280;14326;50.794;6.060;2023-07-13T10:45:59;99795.44;;;22.17;60.70
26719;BME280;14326;50.794;6.060;2023-07-13T10:48:51;99804.41;;;22.19;59.59
26719;BME280;14326;50.794;6.060;2023-07-13T10:51:59;99792.81;;;22.38;59.35
26719;BME280;14326;50.794;6.060;2023-07-13T10:54:49;99793.44;;;22.71;60.60
26719;BME280;14326;50.794;6.060;2023-07-13T10:57:26;99795.81;;;23.04;57.39
26719;BME280;14326;50.794;6.060;2023-07-13T11:00:16;99801.72;;;22.92;54.44
26719;BME280;14326;50.794;6.060;2023-07-13T11:02:43;99804.19;;;22.74;57.34
26719;BME280;14326;50.794;6.060;2023-07-13T11:05:28;99794.38;;;22.70;56.65
26719;BME280;14326;50.794;6.060;2023-07-13T11:07:56;99804.91;;;22.55;55.89
26719;BME280;14326;50.794;6.060;2023-07-13T11:10:51;99810.94;;;22.38;58.06
26719;BME280;14326;50.794;6.060;2023-07-13T11:13:56;99810.63;;;22.21;57.69
26719;BME280;14326;50.794;6.060;2023-07-13T11:16:42;99815.25;;;22.19;60.14
26719;BME280;14326;50.794;6.060;2023-07-13T11:19:37;99819.59;;;22.23;58.37
26719;BME280;14326;50.794;6.060;2023-07-13T11:22:21;99822.06;;;22.30;60.90
26719;BME280;14326;50.794;6.060;2023-07-13T11:24:56;99813.53;;;22.41;60.48
26719;BME280;14326;50.794;6.060;2023-07-13T11:27:41;99807.78;;;22.25;58.16
26719;BME280;14326;50.794;6.060;2023-07-13T11:30:30;99801.69;;;22.19;58.16
26719;BME280;14326;50.794;6.060;2023-07-13T11:33:14;99808.69;;;22.26;59.24
26719;BME280;14326;50.794;6.060;2023-07-13T11:35:45;99808.88;;;22.44;58.71
26719;BME280;14326;50.794;6.060;2023-07-13T11:38:16;99800.44;;;22.54;58.11
26719;BME280;14326;50.794;6.060;2023-07-13T11:40:45;99806.84;;;22.51;58.88
26719;BME280;14326;50.794;6.060;2023-07-13T11:43:15;99796.56;;;22.61;58.73
26719;BME280;14326;50.794;6.060;2023-07-13T11:45:42;99806.44;;;22.86;57.53
26719;BME280;14326;50.794;6.060;2023-07-13T11:48:24;99798.16;;;22.91;54.22
26719;BME280;14326;50.794;6.060;2023-07-13T11:51:17;99796.38;;;23.13;54.33
26719;BME280;14326;50.794;6.060;2023-07-13T11:53:51;99797.59;;;23.28;53.27
26719;BME280;14326;50.794;6.060;2023-07-13T11:56:36;99805.25;;;23.40;54.31
26719;BME280;14326;50.794;6.060;2023-07-13T11:59:28;99802.69;;;23.59;51.06
26719;BME280;14326;50.794;6.060;2023-07-13T12:01:57;99798.22;;;23.80;50.98
26719;BME280;14326;50.794;6.060;2023-07-13T12:04:28;99793.06;;;23.74;51.87
26719;BME280;14326;50.794;6.060;2023-07-13T12:06:57;99789.53;;;23.92;50.36
26719;BME280;14326;50.794;6.060;2023-07-13T12:09:27;99796.34;;;24.24;49.80
26719;BME280;14326;50.794;6.060;2023-07-13T12:11:56;99788.56;;;24.15;50.44
26719;BME280;14326;50.794;6.060;2023-07-13T12:14:23;99792.06;;;24.18;50.71
26719;BME280;14326;50.794;6.060;2023-07-13T12:16:53;99789.91;;;24.04;49.98
26719;BME280;14326;50.794;6.060;2023-07-13T12:19:21;99785.75;;;23.96;49.23
26719;BME280;14326;50.794;6.060;2023-07-13T12:21:50;99789.53;;;23.92;49.19
26719;BME280;14326;50.794;6.060;2023-07-13T12:24:21;99786.66;;;23.96;48.71
26719;BME280;14326;50.794;6.060;2023-07-13T12:26:52;99789.22;;;23.99;48.39
26719;BME280;14326;50.794;6.060;2023-07-13T12:29:21;99795.16;;;23.87;49.26
26719;BME280;14326;50.794;6.060;2023-07-13T12:31:49;99794.44;;;23.84;49.13
26719;BME280;14326;50.794;6.060;2023-07-13T12:34:20;99794.38;;;23.85;50.83
26719;BME280;14326;50.794;6.060;2023-07-13T12:36:49;99791.72;;;23.84;50.22
26719;BME280;14326;50.794;6.060;2023-07-13T12:39:20;99795.94;;;23.91;49.71
26719;BME280;14326;50.794;6.060;2023-07-13T12:41:49;99793.97;;;23.94;49.07
26719;BME280;14326;50.794;6.060;2023-07-13T12:44:18;99792.00;;;23.98;49.16
26719;BME280;14326;50.794;6.060;2023-07-13T12:46:57;99808.22;;;24.21;49.54
26719;BME280;14326;50.794;6.060;2023-07-13T12:49:28;99801.72;;;24.25;48.07
26719;BME280;14326;50.794;6.060;2023-07-13T12:51:59;99799.53;;;24.33;48.30
26719;BME280;14326;50.794;6.060;2023-07-13T12:54:27;99802.88;;;24.40;49.64
26719;BME280;14326;50.794;6.060;2023-07-13T12:56:55;99801.03;;;24.40;48.89
26719;BME280;14326;50.794;6.060;2023-07-13T12:59:25;99802.00;;;24.18;48.81
26719;BME280;14326;50.794;6.060;2023-07-13T13:01:55;99799.28;;;24.19;48.71
26719;BME280;14326;50.794;6.060;2023-07-13T13:04:22;99800.75;;;24.04;49.22
26719;BME280;14326;50.794;6.060;2023-07-13T13:07:00;99794.34;;;24.07;48.44
26719;BME280;14326;50.794;6.060;2023-07-13T13:09:34;99803.41;;;24.28;47.76
26719;BME280;14326;50.794;6.060;2023-07-13T13:12:01;99797.34;;;24.21;48.02
26719;BME280;14326;50.794;6.060;2023-07-13T13:14:27;99790.53;;;24.11;46.43
26719;BME280;14326;50.794;6.060;2023-07-13T13:16:54;99799.44;;;24.15;45.74
26719;BME280;14326;50.794;6.060;2023-07-13T13:19:24;99799.00;;;24.25;46.66
26719;BME280;14326;50.794;6.060;2023-07-13T13:21:57;99793.66;;;24.44;45.28
26719;BME280;14326;50.794;6.060;2023-07-13T13:24:27;99794.84;;;24.57;46.72
26719;BME280;14326;50.794;6.060;2023-07-13T13:26:54;99776.72;;;24.76;46.04
26719;BME280;14326;50.794;6.060;2023-07-13T13:29:24;99793.25;;;24.92;45.25
26719;BME280;14326;50.794;6.060;2023-07-13T13:31:54;99789.31;;;24.79;47.30
26719;BME280;14326;50.794;6.060;2023-07-13T13:34:22;99781.78;;;24.65;46.65
26719;BME280;14326;50.794;6.060;2023-07-13T13:36:50;99777.72;;;24.55;45.68
26719;BME280;14326;50.794;6.060;2023-07-13T13:39:21;99776.69;;;24.58;47.37
26719;BME280;14326;50.794;6.060;2023-07-13T13:41:48;99778.66;;;24.54;47.15
26719;BME280;14326;50.794;6.060;2023-07-13T13:44:16;99771.63;;;24.50;45.88
26719;BME280;14326;50.794;6.060;2023-07-13T13:46:44;99772.41;;;24.52;47.03
26719;BME280;14326;50.794;6.060;2023-07-13T13:49:17;99769.50;;;24.36;46.47
26719;BME280;14326;50.794;6.060;2023-07-13T13:51:45;99770.63;;;24.51;47.36
26719;BME280;14326;50.794;6.060;2023-07-13T13:54:13;99778.25;;;24.63;46.67
26719;BME280;14326;50.794;6.060;2023-07-13T13:56:43;99766.94;;;24.72;46.10
26719;BME280;14326;50.794;6.060;2023-07-13T13:59:10;99760.69;;;24.91;46.83
26719;BME280;14326;50.794;6.060;2023-07-13T14:01:37;99776.78;;;24.75;45.65
26719;BME280;14326;50.794;6.060;2023-07-13T14:04:05;99770.41;;;24.76;46.17
26719;BME280;14326;50.794;6.060;2023-07-13T14:06:33;99766.56;;;24.80;45.46
26719;BME280;14326;50.794;6.060;2023-07-13T14:09:01;99763.19;;;24.95;45.57
26719;BME280;14326;50.794;6.060;2023-07-13T14:11:29;99770.84;;;25.06;46.74
26719;BME280;14326;50.794;6.060;2023-07-13T14:14:00;99765.91;;;24.95;47.08
26719;BME280;14326;50.794;6.060;2023-07-13T14:16:30;99766.13;;;24.91;46.34
26719;BME280;14326;50.794;6.060;2023-07-13T14:18:58;99769.78;;;24.69;47.38
26719;BME280;14326;50.794;6.060;2023-07-13T14:21:27;99765.25;;;24.70;46.83
26719;BME280;14326;50.794;6.060;2023-07-13T14:23:54;99769.66;;;24.72;46.59
26719;BME280;14326;50.794;6.060;2023-07-13T14:26:24;99767.44;;;24.62;45.62
26719;BME280;14326;50.794;6.060;2023-07-13T14:29:14;99767.19;;;24.47;44.93
26719;BME280;14326;50.794;6.060;2023-07-13T14:31:44;99770.59;;;24.32;43.63
26719;BME280;14326;50.794;6.060;2023-07-13T14:34:11;99774.59;;;24.24;43.98
26719;BME280;14326;50.794;6.060;2023-07-13T14:36:41;99767.88;;;24.11;44.71
26719;BME280;14326;50.794;6.060;2023-07-13T14:39:15;99779.28;;;23.98;45.58
26719;BME280;14326;50.794;6.060;2023-07-13T14:42:00;99779.94;;;23.83;45.31
26719;BME280;14326;50.794;6.060;2023-07-13T14:44:30;99788.56;;;23.73;46.97
26719;BME280;14326;50.794;6.060;2023-07-13T14:46:59;99792.59;;;23.62;46.97
26719;BME280;14326;50.794;6.060;2023-07-13T14:49:35;99790.25;;;23.53;47.53
26719;BME280;14326;50.794;6.060;2023-07-13T14:52:17;99797.88;;;23.44;47.67
26719;BME280;14326;50.794;6.060;2023-07-13T14:55:15;99801.22;;;23.27;48.74
26719;BME280;14326;50.794;6.060;2023-07-13T14:58:06;99802.31;;;23.23;48.89
26719;BME280;14326;50.794;6.060;2023-07-13T15:00:53;99803.56;;;23.14;49.03
26719;BME280;14326;50.794;6.060;2023-07-13T15:03:48;99811.31;;;23.02;48.97
26719;BME280;14326;50.794;6.060;2023-07-13T15:06:53;99808.88;;;22.69;50.55